createdAt,value
2023-05-20T00:03:13.624Z,13.2
2023-05-20T00:08:19.954Z,13.1
2023-05-20T00:13:26.333Z,13.1
2023-05-20T00:18:32.752Z,13.1
2023-05-20T00:23:39.114Z,13.0
2023-05-20T00:28:35.481Z,13.0
2023-05-20T00:33:51.924Z,13.0
2023-05-20T00:38:58.294Z,13.0
2023-05-20T00:44:40.295Z,12.9
2023-05-20T00:49:12.648Z,12.9
2023-05-20T00:54:20.554Z,12.8
2023-05-20T00:59:25.924Z,12.8
2023-05-20T01:04:33.355Z,12.8
2023-05-20T01:09:39.679Z,12.7
2023-05-20T01:14:49.630Z,12.7
2023-05-20T01:19:56.097Z,12.7
2023-05-20T01:25:02.428Z,12.7
2023-05-20T01:30:08.794Z,12.6
2023-05-20T01:35:05.170Z,12.5
2023-05-20T01:40:21.542Z,12.5
2023-05-20T01:45:28.144Z,12.4
2023-05-20T01:50:24.543Z,12.4
2023-05-20T01:55:40.913Z,12.3
2023-05-20T02:00:47.312Z,12.2
2023-05-20T02:05:55.303Z,12.2
2023-05-20T02:11:01.598Z,12.1
2023-05-20T02:16:09.584Z,12.1
2023-05-20T02:21:16.023Z,12.0
2023-05-20T02:26:22.325Z,11.9
2023-05-20T02:31:28.713Z,11.9
2023-05-20T02:36:36.911Z,11.8
2023-05-20T02:41:43.332Z,11.7
2023-05-20T02:46:49.759Z,11.7
2023-05-20T02:52:16.426Z,11.7
2023-05-20T02:56:52.642Z,11.6
2023-05-20T03:02:09.061Z,11.6
2023-05-20T03:07:19.090Z,11.5
2023-05-20T03:12:25.448Z,11.5
2023-05-20T03:17:35.475Z,11.4
2023-05-20T03:22:41.839Z,11.3
2023-05-20T03:27:48.179Z,11.3
2023-05-20T03:32:54.612Z,11.3
2023-05-20T03:38:02.589Z,11.2
2023-05-20T03:43:08.913Z,11.2
2023-05-20T03:48:05.360Z,11.1
2023-05-20T03:53:21.709Z,11.1
2023-05-20T03:58:28.167Z,11.0
2023-05-20T04:03:34.684Z,11.0
2023-05-20T04:08:40.989Z,11.0
2023-05-20T04:13:47.328Z,11.0
2023-05-20T04:18:53.774Z,10.9
2023-05-20T04:24:00.137Z,10.9
2023-05-20T04:29:06.460Z,10.9
2023-05-20T04:34:12.836Z,10.9
2023-05-20T04:39:19.233Z,10.9
2023-05-20T04:44:15.607Z,10.9
2023-05-20T04:49:31.973Z,10.9
2023-05-20T04:54:38.390Z,10.9
2023-05-20T04:59:44.737Z,10.9
2023-05-20T05:04:52.753Z,10.9
2023-05-20T05:09:59.137Z,10.9
2023-05-20T05:15:05.474Z,11.0
2023-05-20T05:20:11.821Z,11.0
2023-05-20T05:25:19.806Z,11.1
2023-05-20T05:30:26.183Z,11.1
2023-05-20T05:35:32.869Z,11.2
2023-05-20T05:40:38.985Z,11.3
2023-05-20T05:45:46.928Z,11.3
2023-05-20T05:50:53.449Z,11.4
2023-05-20T05:55:59.965Z,11.5
2023-05-20T06:00:56.335Z,11.5
2023-05-20T06:06:02.682Z,11.6
2023-05-20T06:11:19.103Z,11.7
2023-05-20T06:16:25.475Z,11.8
2023-05-20T06:21:31.823Z,11.9
2023-05-20T06:26:38.211Z,12.0
2023-05-20T06:31:44.564Z,12.1
2023-05-20T06:36:50.949Z,12.2
2023-05-20T06:41:57.362Z,12.4
2023-05-20T06:47:03.713Z,12.5
2023-05-20T06:52:10.082Z,12.6
2023-05-20T06:57:18.059Z,12.7
2023-05-20T07:02:24.471Z,13.0
2023-05-20T07:07:34.367Z,13.2
2023-05-20T07:12:44.771Z,13.4
2023-05-20T07:17:47.141Z,13.5
2023-05-20T07:22:56.510Z,13.7
2023-05-20T07:28:04.484Z,14.0
2023-05-20T07:33:09.859Z,14.6
2023-05-20T07:38:17.244Z,15.2
2023-05-20T07:43:23.716Z,16.1
2023-05-20T07:48:30.004Z,16.9
2023-05-20T07:53:37.543Z,17.8
2023-05-20T07:58:44.186Z,18.6
2023-05-20T08:03:50.634Z,19.4
2023-05-20T08:08:56.913Z,19.9
2023-05-20T08:14:03.341Z,20.5
2023-05-20T08:19:09.719Z,21.1
2023-05-20T08:24:16.187Z,21.6
2023-05-20T08:29:22.578Z,22.1
2023-05-20T08:34:29.507Z,22.7
2023-05-20T08:39:35.856Z,23.2
2023-05-20T08:44:42.275Z,23.8
2023-05-20T08:49:48.633Z,24.3
2023-05-20T08:54:55.002Z,24.8
2023-05-20T09:00:01.532Z,25.2
2023-05-20T09:05:09.042Z,25.6
2023-05-20T09:10:15.264Z,25.8
2023-05-20T09:15:21.664Z,26.0
2023-05-20T09:20:17.984Z,26.1
2023-05-20T09:25:34.846Z,26.1
2023-05-20T09:30:30.907Z,26.3
2023-05-20T09:35:48.848Z,26.6
2023-05-20T09:40:55.243Z,26.8
2023-05-20T09:46:01.720Z,27.2
2023-05-20T09:51:08.359Z,27.6
2023-05-20T09:56:16.150Z,27.9
2023-05-20T10:01:22.648Z,28.2
2023-05-20T10:06:28.902Z,28.6
2023-05-20T10:11:35.291Z,28.8
2023-05-20T10:16:43.271Z,29.1
2023-05-20T10:21:53.607Z,29.2
2023-05-20T10:26:58.243Z,29.1
2023-05-20T10:31:54.685Z,29.0
2023-05-20T10:37:46.678Z,28.9
2023-05-20T10:42:18.949Z,28.8
2023-05-20T10:48:21.259Z,28.8
2023-05-20T10:52:33.493Z,28.8
2023-05-20T10:57:39.875Z,28.8
2023-05-20T11:02:46.309Z,28.8
2023-05-20T11:07:54.217Z,28.8
2023-05-20T11:13:00.613Z,28.9
2023-05-20T11:18:07.093Z,29.0
2023-05-20T11:29:19.173Z,29.4
2023-05-20T11:34:05.504Z,29.4
2023-05-20T11:39:13.487Z,29.5
2023-05-20T11:45:03.143Z,29.5
2023-05-20T11:55:07.466Z,29.3
2023-05-20T11:59:39.854Z,29.2
2023-05-20T12:04:46.386Z,28.9
2023-05-20T12:09:53.625Z,28.7
2023-05-20T12:15:05.089Z,28.4
2023-05-20T12:20:36.456Z,28.3
2023-05-20T12:25:19.258Z,28.2
2023-05-20T12:30:25.612Z,28.2
2023-05-20T12:35:31.985Z,28.2
2023-05-20T12:40:38.890Z,28.2
2023-05-20T12:45:44.742Z,28.2
2023-05-20T12:50:51.126Z,28.2
2023-05-20T12:55:57.572Z,28.2
2023-05-20T13:00:55.254Z,28.1
2023-05-20T13:06:37.284Z,28.1
2023-05-20T13:11:23.972Z,28.0
2023-05-20T13:16:29.634Z,28.0
2023-05-20T13:21:32.931Z,27.9
2023-05-20T13:26:39.330Z,27.8
2023-05-20T13:31:44.661Z,27.6
2023-05-20T13:36:54.921Z,27.5
2023-05-20T13:42:02.335Z,27.3
2023-05-20T13:52:05.058Z,26.8
2023-05-20T13:57:21.713Z,26.7
2023-05-20T14:13:28.329Z,26.3
2023-05-20T14:17:50.646Z,26.1
2023-05-20T14:22:57.031Z,26.0
2023-05-20T14:27:53.407Z,25.8
2023-05-20T14:33:09.864Z,25.6
2023-05-20T14:38:16.156Z,25.4
2023-05-20T14:43:22.594Z,25.2
2023-05-20T14:48:29.064Z,25.0
2023-05-20T14:53:58.453Z,24.8
2023-05-20T14:58:41.813Z,24.7
2023-05-20T15:03:48.260Z,24.5
2023-05-20T15:09:14.612Z,24.2
2023-05-20T15:14:00.956Z,24.0
2023-05-20T15:19:07.461Z,23.8
2023-05-20T15:24:13.741Z,23.6
2023-05-20T15:29:57.020Z,23.4
2023-05-20T15:36:22.293Z,23.1
2023-05-20T15:40:08.489Z,22.9
2023-05-20T15:54:43.682Z,22.5
2023-05-20T15:59:59.930Z,22.3
2023-05-20T16:05:09.388Z,22.2
2023-05-20T16:10:15.806Z,22.1
2023-05-20T16:15:12.137Z,22.0
2023-05-20T16:20:28.569Z,21.9
2023-05-20T16:25:34.969Z,21.8
2023-05-20T16:30:31.302Z,21.7
2023-05-20T16:35:36.718Z,21.7
2023-05-20T16:40:54.255Z,21.6
2023-05-20T16:46:04.669Z,21.6
2023-05-20T16:51:07.002Z,21.5
2023-05-20T16:56:03.438Z,21.5
2023-05-20T17:01:19.854Z,21.5
2023-05-20T17:06:26.181Z,21.4
2023-05-20T17:11:22.749Z,21.4
2023-05-20T17:16:43.182Z,21.3
2023-05-20T17:21:35.486Z,21.2
2023-05-20T17:26:55.905Z,21.1
2023-05-20T17:31:58.270Z,21.1
2023-05-20T17:37:39.870Z,21.0
2023-05-20T17:42:16.518Z,20.8
2023-05-20T17:52:31.951Z,20.6
2023-05-20T17:57:38.954Z,20.5
2023-05-20T18:02:44.521Z,20.5
2023-05-20T18:07:51.892Z,20.3
2023-05-20T18:12:58.302Z,20.2
2023-05-20T18:18:28.761Z,20.1
2023-05-20T18:23:11.054Z,20.0
2023-05-20T18:28:17.472Z,19.9
2023-05-20T18:39:28.176Z,19.7
2023-05-20T18:43:36.450Z,19.5
2023-05-20T18:48:42.811Z,19.4
2023-05-20T18:58:56.799Z,19.3
2023-05-20T19:09:09.524Z,19.0
2023-05-20T19:14:16.004Z,19.0
2023-05-20T19:19:22.696Z,18.8
2023-05-20T19:24:29.014Z,18.8
2023-05-20T19:29:35.450Z,18.6
2023-05-20T19:35:09.882Z,18.5
2023-05-20T19:40:12.264Z,18.4
2023-05-20T19:44:54.706Z,18.3
2023-05-20T19:50:01.243Z,18.1
2023-05-20T19:55:07.619Z,18.1
2023-05-20T20:00:14.129Z,18.0
2023-05-20T20:05:23.054Z,17.8
2023-05-20T20:10:26.798Z,17.8
2023-05-20T20:15:33.517Z,17.7
2023-05-20T20:20:39.906Z,17.6
2023-05-20T20:25:46.105Z,17.5
2023-05-20T20:30:55.600Z,17.5
2023-05-20T20:36:01.963Z,17.4
2023-05-20T20:41:08.337Z,17.3
2023-05-20T20:46:14.866Z,17.3
2023-05-20T20:51:45.244Z,17.2
2023-05-20T20:56:27.616Z,17.1
2023-05-20T21:01:34.044Z,17.1
2023-05-20T21:06:40.438Z,17.0
2023-05-20T21:11:46.877Z,17.0
2023-05-20T21:17:13.317Z,16.9
2023-05-20T21:22:02.657Z,16.9
2023-05-20T21:27:06.022Z,16.9
2023-05-20T21:32:12.415Z,16.8
2023-05-20T21:37:42.872Z,16.8
2023-05-20T21:42:25.186Z,16.7
2023-05-20T21:47:31.613Z,16.7
2023-05-20T21:52:37.998Z,16.7
2023-05-20T21:57:44.571Z,16.6
2023-05-20T22:02:51.219Z,16.6
2023-05-20T22:09:05.628Z,16.6
2023-05-20T22:13:04.033Z,16.6
2023-05-20T22:18:10.386Z,16.5
2023-05-20T22:23:16.971Z,16.5
2023-05-20T22:28:23.773Z,16.4
2023-05-20T22:33:29.999Z,16.4
2023-05-20T22:39:20.383Z,16.4
2023-05-20T22:44:06.777Z,16.4
2023-05-20T22:48:49.098Z,16.3
2023-05-20T22:54:15.663Z,16.3
2023-05-20T22:59:02.011Z,16.3
2023-05-20T23:04:08.494Z,16.2
2023-05-20T23:09:14.836Z,16.2
2023-05-20T23:14:21.244Z,16.2
2023-05-20T23:24:34.172Z,16.1
2023-05-20T23:29:40.578Z,16.1
2023-05-20T23:34:46.969Z,16.1
2023-05-20T23:39:53.305Z,16.0
2023-05-20T23:44:59.769Z,16.0
2023-05-20T23:50:06.216Z,15.9
2023-05-20T23:55:32.638Z,15.9
